createdAt,value
2018-12-03T00:00:24.384Z,20.47
2018-12-03T00:03:08.419Z,19.07
2018-12-03T00:05:36.803Z,19.93
2018-12-03T00:08:05.389Z,19.47
2018-12-03T00:10:33.816Z,18.37
2018-12-03T00:13:02.148Z,20.23
2018-12-03T00:15:30.651Z,20.10
2018-12-03T00:17:59.016Z,20.60
2018-12-03T00:20:27.336Z,20.37
2018-12-03T00:22:55.715Z,18.20
2018-12-03T00:25:24.037Z,18.73
2018-12-03T00:27:53.037Z,17.97
2018-12-03T00:30:21.469Z,18.20
2018-12-03T00:32:50.268Z,20.43
2018-12-03T00:35:18.696Z,18.40
2018-12-03T00:37:47.040Z,18.63
2018-12-03T00:40:15.437Z,20.57
2018-12-03T00:42:43.770Z,21.33
2018-12-03T00:45:12.121Z,21.13
2018-12-03T00:47:40.524Z,21.23
2018-12-03T00:50:08.923Z,18.37
2018-12-03T00:52:37.237Z,17.13
2018-12-03T00:55:06.904Z,18.03
2018-12-03T00:57:35.224Z,17.47
2018-12-03T01:00:05.122Z,18.03
2018-12-03T01:02:33.529Z,17.20
2018-12-03T01:05:01.874Z,17.20
2018-12-03T01:07:30.268Z,17.40
2018-12-03T01:09:58.599Z,16.67
2018-12-03T01:12:26.940Z,15.70
2018-12-03T01:14:55.284Z,16.20
2018-12-03T01:17:23.616Z,16.10
2018-12-03T01:19:51.927Z,18.70
2018-12-03T01:22:20.303Z,18.03
2018-12-03T01:24:48.627Z,18.93
2018-12-03T01:27:17.001Z,19.27
2018-12-03T01:29:45.360Z,18.50
2018-12-03T01:32:13.665Z,19.13
2018-12-03T01:34:42.000Z,18.60
2018-12-03T01:37:10.354Z,20.00
2018-12-03T01:39:38.648Z,21.37
2018-12-03T01:42:07.000Z,21.00
2018-12-03T01:44:35.360Z,20.13
2018-12-03T01:47:03.684Z,18.60
2018-12-03T01:49:32.045Z,18.67
2018-12-03T01:52:00.756Z,18.47
2018-12-03T01:54:29.067Z,18.03
2018-12-03T01:56:57.377Z,18.23
2018-12-03T01:59:25.751Z,17.93
2018-12-03T02:01:54.116Z,18.20
2018-12-03T02:04:22.436Z,17.60
2018-12-03T02:06:50.875Z,17.07
2018-12-03T02:09:19.208Z,17.00
2018-12-03T02:11:47.652Z,16.80
2018-12-03T02:14:15.971Z,17.57
2018-12-03T02:16:44.340Z,17.93
2018-12-03T02:19:12.695Z,19.23
2018-12-03T02:21:41.035Z,20.07
2018-12-03T02:24:09.476Z,20.93
2018-12-03T02:26:37.774Z,21.80
2018-12-03T02:29:06.123Z,20.80
2018-12-03T02:31:34.476Z,21.40
2018-12-03T02:34:02.864Z,22.70
2018-12-03T02:36:31.217Z,22.17
2018-12-03T02:38:59.571Z,20.57
2018-12-03T02:41:27.891Z,19.73
2018-12-03T02:43:56.223Z,19.97
2018-12-03T02:46:24.569Z,20.20
2018-12-03T02:48:52.864Z,20.53
2018-12-03T02:51:21.197Z,21.30
2018-12-03T02:53:49.512Z,19.50
2018-12-03T02:56:17.907Z,18.53
2018-12-03T02:58:46.222Z,18.83
2018-12-03T03:01:14.592Z,18.13
2018-12-03T03:03:42.926Z,17.30
2018-12-03T03:06:11.260Z,17.13
2018-12-03T03:08:39.552Z,16.70
2018-12-03T03:11:07.881Z,17.00
2018-12-03T03:13:36.272Z,17.13
2018-12-03T03:16:04.749Z,16.53
2018-12-03T03:18:33.064Z,16.70
2018-12-03T03:21:01.411Z,16.73
2018-12-03T03:23:32.460Z,15.73
2018-12-03T03:26:00.795Z,18.10
2018-12-03T03:28:29.147Z,18.13
2018-12-03T03:30:57.483Z,17.90
2018-12-03T03:33:25.786Z,17.63
2018-12-03T03:35:54.103Z,18.50
2018-12-03T03:38:22.432Z,17.23
2018-12-03T03:40:50.813Z,18.90
2018-12-03T03:43:19.123Z,18.33
2018-12-03T03:45:47.500Z,19.13
2018-12-03T03:48:15.852Z,19.07
2018-12-03T03:50:44.189Z,20.90
2018-12-03T03:53:12.579Z,21.27
2018-12-03T03:55:40.880Z,21.17
2018-12-03T03:58:09.276Z,21.17
2018-12-03T04:00:37.624Z,21.43
2018-12-03T04:03:06.005Z,21.77
2018-12-03T04:05:34.373Z,21.33
2018-12-03T04:08:02.700Z,22.80
2018-12-03T04:10:31.009Z,22.20
2018-12-03T04:12:59.353Z,22.03
2018-12-03T04:15:27.677Z,22.40
2018-12-03T04:17:57.533Z,22.43
2018-12-03T04:20:25.842Z,22.43
2018-12-03T04:22:54.924Z,22.30
2018-12-03T04:25:23.301Z,21.30
2018-12-03T04:27:52.648Z,21.43
2018-12-03T04:30:21.748Z,21.80
2018-12-03T04:32:50.803Z,22.47
2018-12-03T04:35:19.126Z,21.63
2018-12-03T04:37:47.469Z,20.97
2018-12-03T04:40:16.506Z,21.57
2018-12-03T04:42:44.860Z,21.23
2018-12-03T04:45:14.387Z,20.93
2018-12-03T04:47:42.775Z,21.17
2018-12-03T04:50:13.143Z,21.90
2018-12-03T04:52:41.506Z,21.37
2018-12-03T04:55:10.315Z,21.30
2018-12-03T04:57:38.770Z,21.70
2018-12-03T05:00:11.694Z,21.07
2018-12-03T05:02:40.089Z,19.83
2018-12-03T05:05:08.973Z,20.23
2018-12-03T05:07:37.284Z,21.13
2018-12-03T05:10:11.028Z,21.00
2018-12-03T05:12:39.392Z,21.33
2018-12-03T05:15:11.724Z,21.67
2018-12-03T05:17:40.350Z,19.80
2018-12-03T05:20:11.752Z,19.90
2018-12-03T05:22:40.084Z,20.87
2018-12-03T05:25:09.543Z,20.37
2018-12-03T05:27:37.918Z,20.77
2018-12-03T05:30:09.536Z,21.67
2018-12-03T05:32:38.267Z,21.40
2018-12-03T05:35:10.948Z,21.67
2018-12-03T05:37:39.362Z,21.30
2018-12-03T05:40:15.890Z,21.07
2018-12-03T05:42:44.392Z,21.43
2018-12-03T05:45:12.748Z,21.77
2018-12-03T05:47:41.066Z,21.33
2018-12-03T05:50:11.616Z,21.50
2018-12-03T05:52:39.967Z,19.60
2018-12-03T05:55:09.600Z,19.17
2018-12-03T05:57:37.951Z,19.57
2018-12-03T06:00:16.464Z,19.07
2018-12-03T06:02:44.868Z,19.27
2018-12-03T06:05:13.745Z,20.33
2018-12-03T06:07:42.132Z,19.97
2018-12-03T06:10:13.516Z,20.33
2018-12-03T06:12:41.977Z,19.93
2018-12-03T06:15:11.495Z,19.60
2018-12-03T06:17:39.981Z,16.37
2018-12-03T06:20:11.700Z,16.97
2018-12-03T06:22:40.041Z,20.33
2018-12-03T06:25:10.745Z,20.27
2018-12-03T06:27:39.129Z,20.33
2018-12-03T06:30:19.407Z,21.50
2018-12-03T06:32:47.772Z,21.23
2018-12-03T06:35:16.796Z,20.53
2018-12-03T06:37:45.254Z,20.67
2018-12-03T06:40:20.415Z,21.90
2018-12-03T06:42:48.782Z,21.70
2018-12-03T06:45:18.318Z,22.17
2018-12-03T06:47:51.281Z,21.50
2018-12-03T06:50:20.429Z,21.27
2018-12-03T06:52:48.816Z,22.37
2018-12-03T06:55:17.153Z,20.93
2018-12-03T06:57:45.527Z,21.67
2018-12-03T07:00:15.088Z,20.47
2018-12-03T07:02:43.754Z,21.30
2018-12-03T07:05:12.220Z,20.30
2018-12-03T07:07:41.226Z,19.27
2018-12-03T07:10:12.932Z,20.13
2018-12-03T07:12:41.518Z,19.80
2018-12-03T07:15:11.344Z,18.03
2018-12-03T07:17:39.734Z,17.43
2018-12-03T07:20:11.260Z,19.23
2018-12-03T07:22:39.827Z,18.90
2018-12-03T07:25:09.357Z,17.07
2018-12-03T07:27:37.793Z,18.10
2018-12-03T07:30:15.403Z,18.07
2018-12-03T07:32:44.340Z,15.97
2018-12-03T07:35:12.779Z,15.07
2018-12-03T07:37:41.203Z,14.20
2018-12-03T07:40:10.681Z,16.67
2018-12-03T07:42:39.399Z,15.63
2018-12-03T07:45:13.651Z,15.80
2018-12-03T07:47:42.031Z,15.47
2018-12-03T07:50:11.533Z,15.23
2018-12-03T07:52:40.081Z,14.00
2018-12-03T07:55:11.307Z,14.47
2018-12-03T07:57:41.000Z,16.50
2018-12-03T08:00:13.076Z,16.83
2018-12-03T08:02:41.494Z,15.57
2018-12-03T08:05:10.548Z,11.67
2018-12-03T08:07:38.986Z,14.27
2018-12-03T08:10:11.232Z,15.33
2018-12-03T08:12:39.734Z,15.70
2018-12-03T08:15:24.580Z,15.13
2018-12-03T08:17:56.602Z,13.63
2018-12-03T08:20:27.115Z,14.40
2018-12-03T08:23:02.383Z,15.10
2018-12-03T08:25:30.964Z,14.60
2018-12-03T08:27:59.472Z,15.17
2018-12-03T08:30:27.805Z,15.30
2018-12-03T08:32:56.407Z,14.83
2018-12-03T08:35:24.876Z,15.17
2018-12-03T08:37:53.282Z,15.53
2018-12-03T08:40:21.623Z,15.37
2018-12-03T08:42:56.548Z,15.43
2018-12-03T08:45:25.512Z,15.07
2018-12-03T08:47:54.080Z,15.27
2018-12-03T08:50:25.396Z,16.33
2018-12-03T08:52:54.280Z,16.27
2018-12-03T08:55:29.059Z,16.73
2018-12-03T08:57:57.399Z,15.83
2018-12-03T09:00:27.921Z,15.50
2018-12-03T09:03:01.722Z,15.20
2018-12-03T09:05:34.380Z,15.50
2018-12-03T09:08:02.764Z,15.73
2018-12-03T09:10:31.123Z,15.70
2018-12-03T09:13:06.331Z,15.80
2018-12-03T09:15:34.684Z,15.13
2018-12-03T09:18:03.101Z,15.53
2018-12-03T09:20:31.768Z,16.30
2018-12-03T09:23:00.093Z,15.57
2018-12-03T09:25:28.463Z,17.07
2018-12-03T09:27:56.833Z,17.40
2018-12-03T09:30:27.720Z,16.37
2018-12-03T09:32:53.583Z,16.83
2018-12-03T09:35:21.945Z,17.33
2018-12-03T09:37:50.272Z,14.77
2018-12-03T09:40:20.248Z,16.43
2018-12-03T09:42:48.584Z,17.50
2018-12-03T09:45:17.851Z,18.20
2018-12-03T09:47:46.571Z,17.90
2018-12-03T09:50:16.864Z,17.67
2018-12-03T09:52:45.361Z,16.20
2018-12-03T09:55:18.999Z,17.10
2018-12-03T09:58:05.626Z,18.77
2018-12-03T10:00:34.012Z,18.10
2018-12-03T10:03:04.388Z,18.60
2018-12-03T10:05:39.428Z,19.20
2018-12-03T10:08:07.740Z,19.37
2018-12-03T10:10:36.058Z,19.47
2018-12-03T10:13:07.447Z,20.40
2018-12-03T10:15:35.803Z,22.03
2018-12-03T10:18:04.473Z,21.87
2018-12-03T10:20:32.817Z,22.10
2018-12-03T10:23:01.220Z,22.10
2018-12-03T10:25:29.640Z,21.43
2018-12-03T10:28:03.045Z,21.80
2018-12-03T10:30:31.456Z,21.77
2018-12-03T10:32:59.800Z,22.40
2018-12-03T10:35:34.683Z,21.80
2018-12-03T10:38:08.930Z,22.23
2018-12-03T10:40:41.914Z,21.70
2018-12-03T10:43:11.189Z,20.90
2018-12-03T10:45:39.900Z,20.87
2018-12-03T10:48:08.344Z,21.40
2018-12-03T10:50:36.752Z,21.90
2018-12-03T10:53:05.476Z,20.23
2018-12-03T10:55:38.636Z,20.17
2018-12-03T10:58:07.043Z,19.93
2018-12-03T11:00:40.888Z,20.60
2018-12-03T11:03:13.928Z,20.07
2018-12-03T11:05:48.164Z,19.97
2018-12-03T11:08:22.421Z,21.00
2018-12-03T11:10:52.461Z,20.47
2018-12-03T11:13:21.004Z,20.93
2018-12-03T11:15:49.418Z,28.13
2018-12-03T11:18:18.356Z,20.10
2018-12-03T11:20:46.684Z,19.63
2018-12-03T11:23:21.837Z,21.00
2018-12-03T11:25:50.526Z,20.23
2018-12-03T11:28:19.379Z,20.40
2018-12-03T11:30:51.612Z,20.07
2018-12-03T11:33:25.980Z,21.00
2018-12-03T11:35:56.032Z,20.07
2018-12-03T11:40:34.801Z,19.50
2018-12-03T11:43:03.189Z,18.83
2018-12-03T11:45:31.565Z,19.90
2018-12-03T11:47:59.948Z,17.80
2018-12-03T11:50:28.394Z,17.30
2018-12-03T11:52:56.745Z,16.40
2018-12-03T11:55:25.072Z,16.70
2018-12-03T11:57:53.383Z,15.93
2018-12-03T12:00:21.801Z,15.33
2018-12-03T12:02:50.246Z,15.63
2018-12-03T12:05:24.740Z,15.93
2018-12-03T12:07:53.301Z,15.73
2018-12-03T12:10:21.713Z,15.23
2018-12-03T12:12:50.285Z,17.20
2018-12-03T12:15:18.694Z,16.50
2018-12-03T12:17:47.544Z,17.47
2018-12-03T12:20:16.120Z,16.07
2018-12-03T12:22:44.657Z,16.77
2018-12-03T12:25:13.422Z,18.23
2018-12-03T12:27:44.034Z,16.87
2018-12-03T12:30:14.791Z,17.70
2018-12-03T12:32:43.284Z,16.57
2018-12-03T12:35:11.932Z,16.57
2018-12-03T12:37:40.340Z,17.23
2018-12-03T12:40:11.157Z,18.13
2018-12-03T12:42:40.188Z,18.93
2018-12-03T12:45:15.928Z,19.10
2018-12-03T12:47:44.564Z,18.17
2018-12-03T12:50:16.065Z,18.63
2018-12-03T12:52:44.399Z,18.50
2018-12-03T12:55:12.745Z,16.73
2018-12-03T12:57:41.123Z,15.20
2018-12-03T13:00:13.282Z,15.13
2018-12-03T13:02:41.941Z,12.93
2018-12-03T13:05:10.420Z,14.37
2018-12-03T13:07:38.868Z,13.77
2018-12-03T13:10:10.578Z,14.60
2018-12-03T13:12:39.119Z,14.23
2018-12-03T13:15:11.466Z,14.43
2018-12-03T13:17:40.926Z,15.47
2018-12-03T13:20:11.364Z,15.67
2018-12-03T13:22:39.768Z,15.97
2018-12-03T13:25:10.067Z,15.50
2018-12-03T13:27:38.528Z,17.53
2018-12-03T13:30:11.057Z,18.27
2018-12-03T13:32:39.532Z,18.40
2018-12-03T13:35:09.628Z,18.90
2018-12-03T13:37:38.161Z,20.00
2018-12-03T13:40:11.507Z,20.17
2018-12-03T13:42:39.936Z,19.33
2018-12-03T13:45:16.878Z,20.00
2018-12-03T13:47:45.666Z,20.80
2018-12-03T13:50:15.220Z,23.50
2018-12-03T13:52:43.896Z,22.93
2018-12-03T13:55:17.769Z,22.77
2018-12-03T13:57:46.517Z,23.70
2018-12-03T14:00:22.815Z,23.83
2018-12-03T14:02:57.684Z,22.90
2018-12-03T14:05:26.228Z,23.90
2018-12-03T14:07:57.729Z,25.13
2018-12-03T14:10:35.992Z,24.53
2018-12-03T14:13:14.479Z,23.73
2018-12-03T14:15:53.888Z,23.23
2018-12-03T14:18:29.173Z,22.37
2018-12-03T14:21:01.692Z,21.83
2018-12-03T14:23:33.037Z,20.83
2018-12-03T14:26:01.440Z,20.60
2018-12-03T14:28:30.126Z,20.83
2018-12-03T14:30:58.532Z,21.50
2018-12-03T14:33:26.893Z,17.60
2018-12-03T14:35:55.311Z,17.13
2018-12-03T14:38:23.713Z,17.97
2018-12-03T14:40:52.507Z,19.53
2018-12-03T14:43:21.168Z,18.10
2018-12-03T14:45:49.584Z,17.03
2018-12-03T14:48:17.901Z,17.77
2018-12-03T14:50:46.228Z,18.03
2018-12-03T14:53:15.843Z,19.17
2018-12-03T14:55:44.192Z,18.33
2018-12-03T14:58:12.744Z,16.60
2018-12-03T15:00:41.121Z,15.97
2018-12-03T15:03:09.448Z,15.87
2018-12-03T15:05:37.780Z,15.50
2018-12-03T15:08:06.212Z,13.17
2018-12-03T15:10:34.516Z,12.60
2018-12-03T15:13:02.840Z,12.30
2018-12-03T15:15:31.441Z,12.13
2018-12-03T15:17:59.792Z,13.03
2018-12-03T15:20:28.210Z,12.10
2018-12-03T15:22:56.599Z,11.93
2018-12-03T15:25:24.944Z,12.07
2018-12-03T15:27:53.303Z,11.50
2018-12-03T15:30:21.736Z,11.73
2018-12-03T15:32:50.081Z,12.03
2018-12-03T15:35:18.520Z,11.97
2018-12-03T15:37:46.909Z,12.73
2018-12-03T15:40:16.233Z,13.07
2018-12-03T15:42:44.576Z,12.80
2018-12-03T15:45:15.045Z,13.17
2018-12-03T15:47:43.486Z,12.40
2018-12-03T15:50:11.850Z,13.07
2018-12-03T15:52:40.204Z,12.23
2018-12-03T15:55:08.810Z,16.20
2018-12-03T15:57:37.357Z,29.40
2018-12-03T16:00:08.493Z,30.33
2018-12-03T16:02:36.868Z,31.73
2018-12-03T16:05:08.101Z,32.60
2018-12-03T16:07:36.501Z,33.83
2018-12-03T16:10:07.745Z,33.17
2018-12-03T16:12:37.915Z,32.90
2018-12-03T16:15:07.420Z,33.30
2018-12-03T16:17:35.759Z,33.43
2018-12-03T16:20:05.172Z,33.63
2018-12-03T16:22:33.504Z,33.37
2018-12-03T16:25:01.834Z,34.17
2018-12-03T16:27:30.555Z,34.67
2018-12-03T16:29:58.952Z,34.43
2018-12-03T16:32:27.504Z,35.50
2018-12-03T16:34:55.941Z,36.07
2018-12-03T16:37:24.304Z,35.47
2018-12-03T16:39:52.620Z,35.00
2018-12-03T16:42:20.993Z,35.93
2018-12-03T16:44:49.441Z,35.50
2018-12-03T16:47:17.800Z,36.07
2018-12-03T16:49:46.102Z,33.47
2018-12-03T16:52:14.472Z,34.17
2018-12-03T16:54:42.808Z,35.03
2018-12-03T16:57:11.151Z,35.60
2018-12-03T16:59:39.496Z,35.80
2018-12-03T17:02:07.848Z,37.20
2018-12-03T17:04:36.184Z,38.73
2018-12-03T17:07:04.556Z,41.37
2018-12-03T17:09:33.348Z,39.60
2018-12-03T17:12:01.780Z,42.30
2018-12-03T17:14:30.175Z,43.47
2018-12-03T17:16:58.564Z,43.00
2018-12-03T17:19:27.043Z,41.67
2018-12-03T17:22:20.136Z,39.13
2018-12-03T17:24:48.988Z,39.17
2018-12-03T17:27:17.334Z,40.30
2018-12-03T17:29:46.186Z,40.27
2018-12-03T17:32:14.615Z,40.37
2018-12-03T17:34:48.734Z,40.07
2018-12-03T17:37:11.477Z,39.83
2018-12-03T17:39:39.861Z,40.30
2018-12-03T17:42:08.768Z,39.60
2018-12-03T17:44:37.240Z,40.97
2018-12-03T17:47:05.564Z,39.63
2018-12-03T17:49:33.944Z,41.37
2018-12-03T17:52:02.474Z,40.53
2018-12-03T17:54:30.839Z,41.73
2018-12-03T17:56:59.240Z,41.97
2018-12-03T17:59:27.666Z,42.40
2018-12-03T18:01:56.070Z,41.50
2018-12-03T18:04:24.463Z,42.50
2018-12-03T18:06:52.888Z,43.77
2018-12-03T18:09:21.348Z,41.37
2018-12-03T18:12:26.168Z,41.57
2018-12-03T18:14:54.641Z,43.03
2018-12-03T18:17:23.163Z,43.87
2018-12-03T18:19:51.906Z,45.97
2018-12-03T18:22:20.403Z,46.93
2018-12-03T18:24:48.792Z,48.43
2018-12-03T18:27:17.174Z,48.00
2018-12-03T18:29:45.575Z,45.30
2018-12-03T18:32:14.129Z,46.67
2018-12-03T18:34:42.607Z,45.50
2018-12-03T18:37:10.993Z,45.20
2018-12-03T18:39:39.387Z,41.30
2018-12-03T18:42:07.681Z,39.20
2018-12-03T18:44:36.084Z,42.17
2018-12-03T18:47:04.469Z,43.43
2018-12-03T18:49:35.633Z,41.97
2018-12-03T18:52:08.246Z,39.43
2018-12-03T18:54:36.936Z,41.43
2018-12-03T18:57:05.416Z,42.63
2018-12-03T18:59:34.036Z,39.47
2018-12-03T19:02:02.589Z,37.47
2018-12-03T19:04:30.992Z,39.13
2018-12-03T19:06:59.438Z,36.47
2018-12-03T19:09:29.696Z,33.80
2018-12-03T19:11:58.112Z,35.23
2018-12-03T19:14:26.525Z,34.57
2018-12-03T19:16:54.983Z,33.73
2018-12-03T19:19:23.381Z,32.43
2018-12-03T19:21:51.756Z,32.63
2018-12-03T19:24:20.108Z,31.70
2018-12-03T19:26:48.452Z,30.37
2018-12-03T19:29:16.970Z,32.90
2018-12-03T19:31:47.400Z,30.60
2018-12-03T19:34:17.826Z,30.97
2018-12-03T19:37:03.097Z,30.20
2018-12-03T19:39:31.651Z,28.90
2018-12-03T19:42:00.014Z,31.90
2018-12-03T19:44:28.320Z,32.17
2018-12-03T19:46:56.940Z,32.17
2018-12-03T19:49:25.905Z,32.73
2018-12-03T19:51:55.383Z,32.93
2018-12-03T19:54:23.858Z,32.07
2018-12-03T19:56:53.382Z,32.40
2018-12-03T19:59:23.419Z,33.10
2018-12-03T20:01:52.089Z,34.57
2018-12-03T20:04:26.478Z,31.90
2018-12-03T20:06:55.134Z,31.53
2018-12-03T20:09:23.777Z,34.00
2018-12-03T20:11:52.156Z,33.70
2018-12-03T20:14:20.573Z,35.60
2018-12-03T20:16:48.986Z,33.93
2018-12-03T20:19:18.346Z,34.80
2018-12-03T20:21:48.004Z,34.93
2018-12-03T20:24:17.705Z,35.90
2018-12-03T20:26:53.116Z,35.87
2018-12-03T20:29:39.318Z,34.23
2018-12-03T20:32:20.295Z,33.50
2018-12-03T20:35:01.081Z,34.47
2018-12-03T20:37:43.763Z,35.70
2018-12-03T20:40:25.429Z,36.27
2018-12-03T20:42:59.266Z,36.33
2018-12-03T20:47:42.408Z,35.53
2018-12-03T20:50:35.068Z,34.40
2018-12-03T20:53:03.454Z,34.30
2018-12-03T20:55:36.596Z,38.10
2018-12-03T20:58:05.077Z,38.37
2018-12-03T21:00:33.542Z,38.17
2018-12-03T21:03:02.931Z,38.87
2018-12-03T21:05:31.377Z,36.87
2018-12-03T21:07:59.773Z,36.70
2018-12-03T21:10:28.177Z,36.87
2018-12-03T21:12:56.630Z,34.97
2018-12-03T21:15:25.054Z,37.03
2018-12-03T21:17:53.409Z,37.33
2018-12-03T21:20:33.934Z,38.07
2018-12-03T21:23:02.351Z,39.60
2018-12-03T21:25:30.821Z,38.47
2018-12-03T21:27:59.249Z,40.97
2018-12-03T21:30:27.665Z,40.23
2018-12-03T21:32:56.126Z,39.53
2018-12-03T21:35:24.473Z,41.37
2018-12-03T21:37:53.392Z,38.67
2018-12-03T21:40:21.800Z,36.37
2018-12-03T21:42:50.272Z,40.88
2018-12-03T21:45:18.583Z,37.50
2018-12-03T21:47:47.064Z,36.67
2018-12-03T21:50:15.416Z,36.03
2018-12-03T21:52:43.730Z,36.93
2018-12-03T21:55:13.176Z,37.40
2018-12-03T21:57:41.814Z,39.37
2018-12-03T22:00:14.832Z,39.33
2018-12-03T22:02:43.180Z,39.17
2018-12-03T22:05:11.546Z,39.87
2018-12-03T22:07:39.885Z,39.30
2018-12-03T22:10:08.488Z,37.37
2018-12-03T22:12:36.944Z,39.27
2018-12-03T22:15:06.654Z,38.03
2018-12-03T22:17:35.063Z,38.23
2018-12-03T22:20:04.525Z,39.43
2018-12-03T22:22:32.916Z,40.03
2018-12-03T22:25:01.296Z,39.27
2018-12-03T22:27:29.685Z,38.20
2018-12-03T22:30:02.931Z,39.13
2018-12-03T22:32:32.358Z,39.87
2018-12-03T22:35:00.836Z,40.47
2018-12-03T22:37:29.213Z,42.90
2018-12-03T22:39:57.545Z,43.20
2018-12-03T22:42:25.996Z,42.60
2018-12-03T22:44:54.340Z,41.03
2018-12-03T22:47:22.684Z,41.33
2018-12-03T22:49:51.012Z,42.80
2018-12-03T22:52:19.353Z,43.27
2018-12-03T22:54:47.652Z,44.87
2018-12-03T22:57:15.976Z,41.57
2018-12-03T22:59:44.260Z,42.10
2018-12-03T23:02:12.564Z,42.60
2018-12-03T23:04:41.132Z,45.63
2018-12-03T23:07:09.472Z,44.47
2018-12-03T23:09:37.768Z,46.40
2018-12-03T23:12:06.348Z,45.23
2018-12-03T23:14:34.671Z,44.63
2018-12-03T23:17:02.980Z,45.43
2018-12-03T23:19:31.324Z,45.17
2018-12-03T23:21:59.615Z,45.23
2018-12-03T23:24:28.012Z,45.60
2018-12-03T23:26:56.322Z,46.23
2018-12-03T23:29:24.641Z,47.17
2018-12-03T23:31:54.017Z,47.53
2018-12-03T23:34:22.298Z,45.00
2018-12-03T23:36:50.928Z,44.60
2018-12-03T23:39:19.266Z,44.13
2018-12-03T23:41:47.685Z,45.90
2018-12-03T23:44:16.051Z,42.03
2018-12-03T23:46:44.694Z,45.03
2018-12-03T23:49:12.960Z,43.93
2018-12-03T23:51:41.268Z,44.47
2018-12-03T23:54:09.845Z,42.30
2018-12-03T23:56:38.136Z,43.30
2018-12-03T23:59:06.468Z,41.37
